sensor_id;sensor_type;location;lat;lon;timestamp;P1;durP1;ratioP1;P2;durP2;ratioP2
44272;SDS011;29964;17.182;-96.766;2022-08-01T00:01:42;1.57;;;0.70;;
44272;SDS011;29964;17.182;-96.766;2022-08-01T00:04:09;1.40;;;0.53;;
44272;SDS011;29964;17.182;-96.766;2022-08-01T00:06:36;5.50;;;0.53;;
44272;SDS011;29964;17.182;-96.766;2022-08-01T00:09:02;1.70;;;0.67;;
44272;SDS011;29964;17.182;-96.766;2022-08-01T00:11:29;1.73;;;0.70;;
44272;SDS011;29964;17.182;-96.766;2022-08-01T00:13:56;3.53;;;0.80;;
44272;SDS011;29964;17.182;-96.766;2022-08-01T00:16:22;1.17;;;0.43;;
44272;SDS011;29964;17.182;-96.766;2022-08-01T00:18:50;2.53;;;0.70;;
44272;SDS011;29964;17.182;-96.766;2022-08-01T00:21:17;1.10;;;0.43;;
44272;SDS011;29964;17.182;-96.766;2022-08-01T00:23:44;1.73;;;0.63;;
44272;SDS011;29964;17.182;-96.766;2022-08-01T00:26:12;1.63;;;0.83;;
44272;SDS011;29964;17.182;-96.766;2022-08-01T00:28:39;1.87;;;0.67;;
44272;SDS011;29964;17.182;-96.766;2022-08-01T00:31:06;1.57;;;0.80;;
44272;SDS011;29964;17.182;-96.766;2022-08-01T00:33:32;1.73;;;0.90;;
44272;SDS011;29964;17.182;-96.766;2022-08-01T00:35:59;0.37;;;0.23;;
44272;SDS011;29964;17.182;-96.766;2022-08-01T00:38:26;0.90;;;0.70;;
44272;SDS011;29964;17.182;-96.766;2022-08-01T00:40:52;1.63;;;0.77;;
44272;SDS011;29964;17.182;-96.766;2022-08-01T00:43:19;1.20;;;0.80;;
44272;SDS011;29964;17.182;-96.766;2022-08-01T00:45:46;0.63;;;0.53;;
44272;SDS011;29964;17.182;-96.766;2022-08-01T00:48:12;0.97;;;0.70;;
44272;SDS011;29964;17.182;-96.766;2022-08-01T00:50:39;3.07;;;1.17;;
44272;SDS011;29964;17.182;-96.766;2022-08-01T00:53:06;9.43;;;1.17;;
44272;SDS011;29964;17.182;-96.766;2022-08-01T00:55:33;2.30;;;1.00;;
44272;SDS011;29964;17.182;-96.766;2022-08-01T00:58:00;1.30;;;0.77;;
44272;SDS011;29964;17.182;-96.766;2022-08-01T01:00:27;3.23;;;0.70;;
44272;SDS011;29964;17.182;-96.766;2022-08-01T01:02:53;3.63;;;0.93;;
44272;SDS011;29964;17.182;-96.766;2022-08-01T01:05:20;0.83;;;0.63;;
44272;SDS011;29964;17.182;-96.766;2022-08-01T01:08:00;1.93;;;0.80;;
44272;SDS011;29964;17.182;-96.766;2022-08-01T01:10:31;0.97;;;0.70;;
44272;SDS011;29964;17.182;-96.766;2022-08-01T01:12:59;1.93;;;1.10;;
44272;SDS011;29964;17.182;-96.766;2022-08-01T01:15:30;2.43;;;1.00;;
44272;SDS011;29964;17.182;-96.766;2022-08-01T01:18:22;1.07;;;0.87;;
44272;SDS011;29964;17.182;-96.766;2022-08-01T01:20:48;1.53;;;0.80;;
44272;SDS011;29964;17.182;-96.766;2022-08-01T01:28:20;3.53;;;0.70;;
44272;SDS011;29964;17.182;-96.766;2022-08-01T01:30:48;0.63;;;0.50;;
44272;SDS011;29964;17.182;-96.766;2022-08-01T01:33:16;0.87;;;0.43;;
44272;SDS011;29964;17.182;-96.766;2022-08-01T01:35:47;0.77;;;0.50;;
44272;SDS011;29964;17.182;-96.766;2022-08-01T01:38:17;0.07;;;0.07;;
44272;SDS011;29964;17.182;-96.766;2022-08-01T01:40:44;2.13;;;0.30;;
44272;SDS011;29964;17.182;-96.766;2022-08-01T01:43:11;0.10;;;0.10;;
44272;SDS011;29964;17.182;-96.766;2022-08-01T01:45:39;0.80;;;0.40;;
44272;SDS011;29964;17.182;-96.766;2022-08-01T01:48:07;0.03;;;0.03;;
44272;SDS011;29964;17.182;-96.766;2022-08-01T01:50:34;1.53;;;0.37;;
44272;SDS011;29964;17.182;-96.766;2022-08-01T01:53:02;0.47;;;0.20;;
44272;SDS011;29964;17.182;-96.766;2022-08-01T01:55:30;0.80;;;0.33;;
44272;SDS011;29964;17.182;-96.766;2022-08-01T01:57:57;0.53;;;0.20;;
44272;SDS011;29964;17.182;-96.766;2022-08-01T02:00:24;0.63;;;0.30;;
44272;SDS011;29964;17.182;-96.766;2022-08-01T02:02:52;0.63;;;0.20;;
44272;SDS011;29964;17.182;-96.766;2022-08-01T02:05:20;0.40;;;0.30;;
44272;SDS011;29964;17.182;-96.766;2022-08-01T02:07:47;0.10;;;0.10;;
44272;SDS011;29964;17.182;-96.766;2022-08-01T02:10:15;0.73;;;0.10;;
44272;SDS011;29964;17.182;-96.766;2022-08-01T02:12:43;0.13;;;0.10;;
44272;SDS011;29964;17.182;-96.766;2022-08-01T02:15:11;1.50;;;0.50;;
44272;SDS011;29964;17.182;-96.766;2022-08-01T02:17:40;0.10;;;0.10;;
44272;SDS011;29964;17.182;-96.766;2022-08-01T02:20:07;0.43;;;0.20;;
44272;SDS011;29964;17.182;-96.766;2022-08-01T02:22:41;0.87;;;0.30;;
44272;SDS011;29964;17.182;-96.766;2022-08-01T02:25:15;0.80;;;0.10;;
44272;SDS011;29964;17.182;-96.766;2022-08-01T02:30:21;1.60;;;0.37;;
44272;SDS011;29964;17.182;-96.766;2022-08-01T02:32:51;0.47;;;0.37;;
44272;SDS011;29964;17.182;-96.766;2022-08-01T02:35:21;1.00;;;0.40;;
44272;SDS011;29964;17.182;-96.766;2022-08-01T02:37:49;0.10;;;0.10;;
44272;SDS011;29964;17.182;-96.766;2022-08-01T02:40:16;1.70;;;0.33;;
44272;SDS011;29964;17.182;-96.766;2022-08-01T02:42:45;1.57;;;0.60;;
44272;SDS011;29964;17.182;-96.766;2022-08-01T02:45:13;1.07;;;0.43;;
44272;SDS011;29964;17.182;-96.766;2022-08-01T02:47:41;4.20;;;0.60;;
44272;SDS011;29964;17.182;-96.766;2022-08-01T02:50:10;1.43;;;0.73;;
44272;SDS011;29964;17.182;-96.766;2022-08-01T02:52:39;0.67;;;0.40;;
44272;SDS011;29964;17.182;-96.766;2022-08-01T02:55:06;1.97;;;0.80;;
44272;SDS011;29964;17.182;-96.766;2022-08-01T02:57:33;0.33;;;0.30;;
44272;SDS011;29964;17.182;-96.766;2022-08-01T03:00:03;0.90;;;0.30;;
44272;SDS011;29964;17.182;-96.766;2022-08-01T03:02:31;3.03;;;0.70;;
44272;SDS011;29964;17.182;-96.766;2022-08-01T03:04:58;0.63;;;0.30;;
44272;SDS011;29964;17.182;-96.766;2022-08-01T03:07:25;0.73;;;0.30;;
44272;SDS011;29964;17.182;-96.766;2022-08-01T03:09:52;0.37;;;0.20;;
44272;SDS011;29964;17.182;-96.766;2022-08-01T03:12:19;0.03;;;0.03;;
44272;SDS011;29964;17.182;-96.766;2022-08-01T03:14:47;2.37;;;0.40;;
44272;SDS011;29964;17.182;-96.766;2022-08-01T03:17:15;0.60;;;0.30;;
44272;SDS011;29964;17.182;-96.766;2022-08-01T03:19:43;0.10;;;0.10;;
44272;SDS011;29964;17.182;-96.766;2022-08-01T03:22:12;0.10;;;0.10;;
44272;SDS011;29964;17.182;-96.766;2022-08-01T03:24:40;0.00;;;0.00;;
44272;SDS011;29964;17.182;-96.766;2022-08-01T03:27:07;0.00;;;0.00;;
44272;SDS011;29964;17.182;-96.766;2022-08-01T03:29:35;0.20;;;0.10;;
44272;SDS011;29964;17.182;-96.766;2022-08-01T03:32:02;0.20;;;0.10;;
44272;SDS011;29964;17.182;-96.766;2022-08-01T03:34:30;0.13;;;0.10;;
44272;SDS011;29964;17.182;-96.766;2022-08-01T03:37:02;0.27;;;0.17;;
44272;SDS011;29964;17.182;-96.766;2022-08-01T03:39:31;0.00;;;0.00;;
44272;SDS011;29964;17.182;-96.766;2022-08-01T03:42:02;2.73;;;0.40;;
44272;SDS011;29964;17.182;-96.766;2022-08-01T03:44:31;1.63;;;0.60;;
44272;SDS011;29964;17.182;-96.766;2022-08-01T03:47:00;0.10;;;0.10;;
44272;SDS011;29964;17.182;-96.766;2022-08-01T03:49:32;0.40;;;0.33;;
44272;SDS011;29964;17.182;-96.766;2022-08-01T03:52:01;0.43;;;0.33;;
44272;SDS011;29964;17.182;-96.766;2022-08-01T03:54:30;0.80;;;0.60;;
44272;SDS011;29964;17.182;-96.766;2022-08-01T03:56:58;1.07;;;0.50;;
44272;SDS011;29964;17.182;-96.766;2022-08-01T03:59:26;0.40;;;0.20;;
44272;SDS011;29964;17.182;-96.766;2022-08-01T04:01:53;0.47;;;0.30;;
44272;SDS011;29964;17.182;-96.766;2022-08-01T04:04:21;1.43;;;0.50;;
44272;SDS011;29964;17.182;-96.766;2022-08-01T04:06:48;0.10;;;0.10;;
44272;SDS011;29964;17.182;-96.766;2022-08-01T04:09:19;2.63;;;0.70;;
44272;SDS011;29964;17.182;-96.766;2022-08-01T04:11:47;2.50;;;0.77;;
44272;SDS011;29964;17.182;-96.766;2022-08-01T04:14:14;0.07;;;0.07;;
44272;SDS011;29964;17.182;-96.766;2022-08-01T04:16:40;0.23;;;0.20;;
44272;SDS011;29964;17.182;-96.766;2022-08-01T04:19:07;0.57;;;0.30;;
44272;SDS011;29964;17.182;-96.766;2022-08-01T04:21:34;0.00;;;0.00;;
44272;SDS011;29964;17.182;-96.766;2022-08-01T04:24:03;0.27;;;0.20;;
44272;SDS011;29964;17.182;-96.766;2022-08-01T04:26:32;0.30;;;0.23;;
44272;SDS011;29964;17.182;-96.766;2022-08-01T04:28:59;0.20;;;0.17;;
44272;SDS011;29964;17.182;-96.766;2022-08-01T04:31:27;0.10;;;0.10;;
44272;SDS011;29964;17.182;-96.766;2022-08-01T04:33:55;0.20;;;0.10;;
44272;SDS011;29964;17.182;-96.766;2022-08-01T04:36:22;0.37;;;0.20;;
44272;SDS011;29964;17.182;-96.766;2022-08-01T04:38:50;1.20;;;0.57;;
44272;SDS011;29964;17.182;-96.766;2022-08-01T04:41:18;0.10;;;0.10;;
44272;SDS011;29964;17.182;-96.766;2022-08-01T04:43:46;0.73;;;0.30;;
44272;SDS011;29964;17.182;-96.766;2022-08-01T04:46:12;0.20;;;0.20;;
44272;SDS011;29964;17.182;-96.766;2022-08-01T04:48:39;0.10;;;0.10;;
44272;SDS011;29964;17.182;-96.766;2022-08-01T04:51:13;0.47;;;0.37;;
44272;SDS011;29964;17.182;-96.766;2022-08-01T04:53:47;0.33;;;0.20;;
44272;SDS011;29964;17.182;-96.766;2022-08-01T04:56:16;0.40;;;0.20;;
44272;SDS011;29964;17.182;-96.766;2022-08-01T04:58:43;0.23;;;0.20;;
44272;SDS011;29964;17.182;-96.766;2022-08-01T05:01:10;0.00;;;0.00;;
44272;SDS011;29964;17.182;-96.766;2022-08-01T05:03:37;0.90;;;0.40;;
44272;SDS011;29964;17.182;-96.766;2022-08-01T05:06:04;0.47;;;0.20;;
44272;SDS011;29964;17.182;-96.766;2022-08-01T05:08:30;0.10;;;0.10;;
44272;SDS011;29964;17.182;-96.766;2022-08-01T05:10:57;0.27;;;0.10;;
44272;SDS011;29964;17.182;-96.766;2022-08-01T05:13:24;0.10;;;0.10;;
44272;SDS011;29964;17.182;-96.766;2022-08-01T05:15:51;0.30;;;0.20;;
44272;SDS011;29964;17.182;-96.766;2022-08-01T05:18:17;0.40;;;0.20;;
44272;SDS011;29964;17.182;-96.766;2022-08-01T05:20:44;0.13;;;0.10;;
44272;SDS011;29964;17.182;-96.766;2022-08-01T05:23:12;0.40;;;0.20;;
44272;SDS011;29964;17.182;-96.766;2022-08-01T05:25:39;0.37;;;0.27;;
44272;SDS011;29964;17.182;-96.766;2022-08-01T05:28:05;0.43;;;0.27;;
44272;SDS011;29964;17.182;-96.766;2022-08-01T05:30:32;0.30;;;0.30;;
44272;SDS011;29964;17.182;-96.766;2022-08-01T05:32:59;0.20;;;0.20;;
44272;SDS011;29964;17.182;-96.766;2022-08-01T05:35:25;0.23;;;0.10;;
44272;SDS011;29964;17.182;-96.766;2022-08-01T05:37:52;6.80;;;0.40;;
44272;SDS011;29964;17.182;-96.766;2022-08-01T05:40:19;0.20;;;0.20;;
44272;SDS011;29964;17.182;-96.766;2022-08-01T05:42:45;0.10;;;0.10;;
44272;SDS011;29964;17.182;-96.766;2022-08-01T05:45:13;0.53;;;0.30;;
44272;SDS011;29964;17.182;-96.766;2022-08-01T05:47:39;0.33;;;0.30;;
44272;SDS011;29964;17.182;-96.766;2022-08-01T05:50:06;0.30;;;0.27;;
44272;SDS011;29964;17.182;-96.766;2022-08-01T05:52:33;2.80;;;0.63;;
44272;SDS011;29964;17.182;-96.766;2022-08-01T05:55:00;0.50;;;0.33;;
44272;SDS011;29964;17.182;-96.766;2022-08-01T05:57:26;1.33;;;0.50;;
44272;SDS011;29964;17.182;-96.766;2022-08-01T05:59:53;0.40;;;0.40;;
44272;SDS011;29964;17.182;-96.766;2022-08-01T06:02:19;0.30;;;0.23;;
44272;SDS011;29964;17.182;-96.766;2022-08-01T06:04:46;0.73;;;0.43;;
44272;SDS011;29964;17.182;-96.766;2022-08-01T06:07:13;0.97;;;0.43;;
44272;SDS011;29964;17.182;-96.766;2022-08-01T06:09:40;1.30;;;0.30;;
44272;SDS011;29964;17.182;-96.766;2022-08-01T06:12:06;0.57;;;0.50;;
44272;SDS011;29964;17.182;-96.766;2022-08-01T06:14:33;0.30;;;0.30;;
44272;SDS011;29964;17.182;-96.766;2022-08-01T06:17:00;2.33;;;0.67;;
44272;SDS011;29964;17.182;-96.766;2022-08-01T06:19:26;0.80;;;0.30;;
44272;SDS011;29964;17.182;-96.766;2022-08-01T06:21:53;0.43;;;0.23;;
44272;SDS011;29964;17.182;-96.766;2022-08-01T06:24:20;0.30;;;0.27;;
44272;SDS011;29964;17.182;-96.766;2022-08-01T06:26:48;0.50;;;0.40;;
44272;SDS011;29964;17.182;-96.766;2022-08-01T06:29:15;1.07;;;0.53;;
44272;SDS011;29964;17.182;-96.766;2022-08-01T06:31:41;0.20;;;0.20;;
44272;SDS011;29964;17.182;-96.766;2022-08-01T06:34:08;8.10;;;0.67;;
44272;SDS011;29964;17.182;-96.766;2022-08-01T06:36:35;12.63;;;0.80;;
44272;SDS011;29964;17.182;-96.766;2022-08-01T06:39:01;0.80;;;0.50;;
44272;SDS011;29964;17.182;-96.766;2022-08-01T06:41:28;1.67;;;0.53;;
44272;SDS011;29964;17.182;-96.766;2022-08-01T06:43:55;2.40;;;0.63;;
44272;SDS011;29964;17.182;-96.766;2022-08-01T06:46:21;0.30;;;0.30;;
44272;SDS011;29964;17.182;-96.766;2022-08-01T06:48:48;0.63;;;0.50;;
44272;SDS011;29964;17.182;-96.766;2022-08-01T06:51:15;8.33;;;1.13;;
44272;SDS011;29964;17.182;-96.766;2022-08-01T06:53:45;1.30;;;0.70;;
44272;SDS011;29964;17.182;-96.766;2022-08-01T06:56:11;0.53;;;0.30;;
44272;SDS011;29964;17.182;-96.766;2022-08-01T06:58:38;2.03;;;0.93;;
44272;SDS011;29964;17.182;-96.766;2022-08-01T07:01:05;1.23;;;0.70;;
44272;SDS011;29964;17.182;-96.766;2022-08-01T07:03:33;2.67;;;0.70;;
44272;SDS011;29964;17.182;-96.766;2022-08-01T07:05:59;0.33;;;0.20;;
44272;SDS011;29964;17.182;-96.766;2022-08-01T07:08:26;1.77;;;0.77;;
44272;SDS011;29964;17.182;-96.766;2022-08-01T07:10:53;1.10;;;0.70;;
44272;SDS011;29964;17.182;-96.766;2022-08-01T07:13:20;0.53;;;0.47;;
44272;SDS011;29964;17.182;-96.766;2022-08-01T07:15:50;0.73;;;0.67;;
44272;SDS011;29964;17.182;-96.766;2022-08-01T07:18:17;1.60;;;0.60;;
44272;SDS011;29964;17.182;-96.766;2022-08-01T07:20:44;0.77;;;0.53;;
44272;SDS011;29964;17.182;-96.766;2022-08-01T07:23:14;2.20;;;0.97;;
44272;SDS011;29964;17.182;-96.766;2022-08-01T07:25:41;0.50;;;0.43;;
44272;SDS011;29964;17.182;-96.766;2022-08-01T07:28:07;1.10;;;0.47;;
44272;SDS011;29964;17.182;-96.766;2022-08-01T07:30:34;1.40;;;0.63;;
44272;SDS011;29964;17.182;-96.766;2022-08-01T07:33:01;0.63;;;0.43;;
44272;SDS011;29964;17.182;-96.766;2022-08-01T07:35:28;0.67;;;0.60;;
44272;SDS011;29964;17.182;-96.766;2022-08-01T07:37:55;1.67;;;0.57;;
44272;SDS011;29964;17.182;-96.766;2022-08-01T07:40:21;0.60;;;0.47;;
44272;SDS011;29964;17.182;-96.766;2022-08-01T07:42:48;1.03;;;0.53;;
44272;SDS011;29964;17.182;-96.766;2022-08-01T07:45:15;0.97;;;0.80;;
44272;SDS011;29964;17.182;-96.766;2022-08-01T07:47:42;1.10;;;0.50;;
44272;SDS011;29964;17.182;-96.766;2022-08-01T07:50:09;2.00;;;0.90;;
44272;SDS011;29964;17.182;-96.766;2022-08-01T07:52:37;0.57;;;0.30;;
44272;SDS011;29964;17.182;-96.766;2022-08-01T07:55:04;0.20;;;0.20;;
44272;SDS011;29964;17.182;-96.766;2022-08-01T07:57:31;1.73;;;0.80;;
44272;SDS011;29964;17.182;-96.766;2022-08-01T07:59:58;0.17;;;0.17;;
44272;SDS011;29964;17.182;-96.766;2022-08-01T08:02:24;0.53;;;0.40;;
44272;SDS011;29964;17.182;-96.766;2022-08-01T08:04:51;0.83;;;0.43;;
44272;SDS011;29964;17.182;-96.766;2022-08-01T08:07:18;0.93;;;0.47;;
44272;SDS011;29964;17.182;-96.766;2022-08-01T08:09:45;0.47;;;0.37;;
44272;SDS011;29964;17.182;-96.766;2022-08-01T08:12:11;0.20;;;0.10;;
44272;SDS011;29964;17.182;-96.766;2022-08-01T08:14:38;0.60;;;0.47;;
44272;SDS011;29964;17.182;-96.766;2022-08-01T08:17:05;0.97;;;0.60;;
44272;SDS011;29964;17.182;-96.766;2022-08-01T08:19:31;0.53;;;0.40;;
44272;SDS011;29964;17.182;-96.766;2022-08-01T08:21:59;2.40;;;0.47;;
44272;SDS011;29964;17.182;-96.766;2022-08-01T08:24:26;0.37;;;0.10;;
44272;SDS011;29964;17.182;-96.766;2022-08-01T08:26:56;0.40;;;0.40;;
44272;SDS011;29964;17.182;-96.766;2022-08-01T08:29:23;0.73;;;0.37;;
44272;SDS011;29964;17.182;-96.766;2022-08-01T08:31:54;3.67;;;0.37;;
44272;SDS011;29964;17.182;-96.766;2022-08-01T08:34:21;1.17;;;0.70;;
44272;SDS011;29964;17.182;-96.766;2022-08-01T08:36:51;0.70;;;0.47;;
44272;SDS011;29964;17.182;-96.766;2022-08-01T08:39:18;0.40;;;0.20;;
44272;SDS011;29964;17.182;-96.766;2022-08-01T08:41:45;0.77;;;0.40;;
44272;SDS011;29964;17.182;-96.766;2022-08-01T08:44:12;1.77;;;0.67;;
44272;SDS011;29964;17.182;-96.766;2022-08-01T08:46:48;1.80;;;0.50;;
44272;SDS011;29964;17.182;-96.766;2022-08-01T08:49:20;0.83;;;0.50;;
44272;SDS011;29964;17.182;-96.766;2022-08-01T08:51:47;0.67;;;0.43;;
44272;SDS011;29964;17.182;-96.766;2022-08-01T08:54:15;2.00;;;0.57;;
44272;SDS011;29964;17.182;-96.766;2022-08-01T08:56:43;0.20;;;0.20;;
44272;SDS011;29964;17.182;-96.766;2022-08-01T08:59:10;0.10;;;0.10;;
44272;SDS011;29964;17.182;-96.766;2022-08-01T09:01:38;0.60;;;0.43;;
44272;SDS011;29964;17.182;-96.766;2022-08-01T09:04:05;0.53;;;0.30;;
44272;SDS011;29964;17.182;-96.766;2022-08-01T09:06:32;0.30;;;0.20;;
44272;SDS011;29964;17.182;-96.766;2022-08-01T09:08:59;0.20;;;0.20;;
44272;SDS011;29964;17.182;-96.766;2022-08-01T09:11:26;1.10;;;0.30;;
44272;SDS011;29964;17.182;-96.766;2022-08-01T09:16:35;0.50;;;0.40;;
44272;SDS011;29964;17.182;-96.766;2022-08-01T09:19:20;1.60;;;0.70;;
44272;SDS011;29964;17.182;-96.766;2022-08-01T09:21:56;0.60;;;0.40;;
44272;SDS011;29964;17.182;-96.766;2022-08-01T09:24:24;1.10;;;0.77;;
44272;SDS011;29964;17.182;-96.766;2022-08-01T09:26:51;2.40;;;0.73;;
44272;SDS011;29964;17.182;-96.766;2022-08-01T09:29:22;0.70;;;0.40;;
44272;SDS011;29964;17.182;-96.766;2022-08-01T09:31:49;1.70;;;0.70;;
44272;SDS011;29964;17.182;-96.766;2022-08-01T09:34:23;0.50;;;0.30;;
44272;SDS011;29964;17.182;-96.766;2022-08-01T09:36:51;0.93;;;0.57;;
44272;SDS011;29964;17.182;-96.766;2022-08-01T09:39:20;1.13;;;0.70;;
44272;SDS011;29964;17.182;-96.766;2022-08-01T09:41:47;0.60;;;0.40;;
44272;SDS011;29964;17.182;-96.766;2022-08-01T09:44:14;0.50;;;0.47;;
44272;SDS011;29964;17.182;-96.766;2022-08-01T09:46:55;0.77;;;0.27;;
44272;SDS011;29964;17.182;-96.766;2022-08-01T09:49:32;0.47;;;0.40;;
44272;SDS011;29964;17.182;-96.766;2022-08-01T09:52:09;0.20;;;0.20;;
44272;SDS011;29964;17.182;-96.766;2022-08-01T09:54:36;0.30;;;0.27;;
44272;SDS011;29964;17.182;-96.766;2022-08-01T09:57:07;0.40;;;0.37;;
44272;SDS011;29964;17.182;-96.766;2022-08-01T09:59:35;0.63;;;0.40;;
44272;SDS011;29964;17.182;-96.766;2022-08-01T10:02:03;0.23;;;0.23;;
44272;SDS011;29964;17.182;-96.766;2022-08-01T10:04:29;0.50;;;0.37;;
44272;SDS011;29964;17.182;-96.766;2022-08-01T10:07:03;1.47;;;0.50;;
44272;SDS011;29964;17.182;-96.766;2022-08-01T10:09:31;0.57;;;0.40;;
44272;SDS011;29964;17.182;-96.766;2022-08-01T10:11:59;0.27;;;0.27;;
44272;SDS011;29964;17.182;-96.766;2022-08-01T10:14:27;2.77;;;0.70;;
44272;SDS011;29964;17.182;-96.766;2022-08-01T10:16:55;3.60;;;0.50;;
44272;SDS011;29964;17.182;-96.766;2022-08-01T10:19:23;1.30;;;0.63;;
44272;SDS011;29964;17.182;-96.766;2022-08-01T10:21:51;0.83;;;0.63;;
44272;SDS011;29964;17.182;-96.766;2022-08-01T10:24:21;0.33;;;0.33;;
44272;SDS011;29964;17.182;-96.766;2022-08-01T10:26:48;0.43;;;0.43;;
44272;SDS011;29964;17.182;-96.766;2022-08-01T10:29:16;1.90;;;1.23;;
44272;SDS011;29964;17.182;-96.766;2022-08-01T10:31:48;1.13;;;0.87;;
44272;SDS011;29964;17.182;-96.766;2022-08-01T10:34:15;1.90;;;1.03;;
44272;SDS011;29964;17.182;-96.766;2022-08-01T10:36:46;1.20;;;0.80;;
44272;SDS011;29964;17.182;-96.766;2022-08-01T10:39:13;0.83;;;0.70;;
44272;SDS011;29964;17.182;-96.766;2022-08-01T10:41:40;3.00;;;0.70;;
44272;SDS011;29964;17.182;-96.766;2022-08-01T10:44:07;4.10;;;1.50;;
44272;SDS011;29964;17.182;-96.766;2022-08-01T10:46:35;1.03;;;0.60;;
44272;SDS011;29964;17.182;-96.766;2022-08-01T10:51:30;3.67;;;1.03;;
44272;SDS011;29964;17.182;-96.766;2022-08-01T10:53:56;0.63;;;0.50;;
44272;SDS011;29964;17.182;-96.766;2022-08-01T10:56:26;0.23;;;0.23;;
44272;SDS011;29964;17.182;-96.766;2022-08-01T10:59:04;0.50;;;0.37;;
44272;SDS011;29964;17.182;-96.766;2022-08-01T11:01:31;0.50;;;0.50;;
44272;SDS011;29964;17.182;-96.766;2022-08-01T11:04:11;0.83;;;0.70;;
44272;SDS011;29964;17.182;-96.766;2022-08-01T11:06:42;1.93;;;0.73;;
44272;SDS011;29964;17.182;-96.766;2022-08-01T11:14:24;2.53;;;1.60;;
44272;SDS011;29964;17.182;-96.766;2022-08-01T11:16:51;3.47;;;2.13;;
44272;SDS011;29964;17.182;-96.766;2022-08-01T11:19:18;1.90;;;0.90;;
44272;SDS011;29964;17.182;-96.766;2022-08-01T11:27:47;0.45;;;0.40;;
44272;SDS011;29964;17.182;-96.766;2022-08-01T11:32:46;0.57;;;0.53;;
44272;SDS011;29964;17.182;-96.766;2022-08-01T11:35:13;0.63;;;0.60;;
44272;SDS011;29964;17.182;-96.766;2022-08-01T11:37:40;0.83;;;0.70;;
44272;SDS011;29964;17.182;-96.766;2022-08-01T11:40:23;1.37;;;0.80;;
44272;SDS011;29964;17.182;-96.766;2022-08-01T11:43:36;0.40;;;0.40;;
44272;SDS011;29964;17.182;-96.766;2022-08-01T11:45:50;2.80;;;1.80;;
44272;SDS011;29964;17.182;-96.766;2022-08-01T11:48:18;5.47;;;1.67;;
44272;SDS011;29964;17.182;-96.766;2022-08-01T11:50:46;0.80;;;0.70;;
44272;SDS011;29964;17.182;-96.766;2022-08-01T11:53:12;0.73;;;0.70;;
44272;SDS011;29964;17.182;-96.766;2022-08-01T11:55:47;1.30;;;1.03;;
44272;SDS011;29964;17.182;-96.766;2022-08-01T11:58:14;0.87;;;0.60;;
44272;SDS011;29964;17.182;-96.766;2022-08-01T12:00:41;1.23;;;0.80;;
44272;SDS011;29964;17.182;-96.766;2022-08-01T12:03:08;0.63;;;0.60;;
44272;SDS011;29964;17.182;-96.766;2022-08-01T12:05:35;1.33;;;0.63;;
44272;SDS011;29964;17.182;-96.766;2022-08-01T12:08:05;0.97;;;0.73;;
44272;SDS011;29964;17.182;-96.766;2022-08-01T12:10:34;1.13;;;0.73;;
44272;SDS011;29964;17.182;-96.766;2022-08-01T12:13:03;0.80;;;0.50;;
44272;SDS011;29964;17.182;-96.766;2022-08-01T12:15:34;0.80;;;0.60;;
44272;SDS011;29964;17.182;-96.766;2022-08-01T12:18:04;2.27;;;0.90;;
44272;SDS011;29964;17.182;-96.766;2022-08-01T12:20:32;1.53;;;0.80;;
44272;SDS011;29964;17.182;-96.766;2022-08-01T12:23:00;0.30;;;0.20;;
44272;SDS011;29964;17.182;-96.766;2022-08-01T12:25:27;1.40;;;1.03;;
44272;SDS011;29964;17.182;-96.766;2022-08-01T12:27:54;1.00;;;0.50;;
44272;SDS011;29964;17.182;-96.766;2022-08-01T12:30:22;0.40;;;0.40;;
44272;SDS011;29964;17.182;-96.766;2022-08-01T12:32:53;2.23;;;1.03;;
44272;SDS011;29964;17.182;-96.766;2022-08-01T12:35:21;0.67;;;0.60;;
44272;SDS011;29964;17.182;-96.766;2022-08-01T12:37:49;1.40;;;0.80;;
44272;SDS011;29964;17.182;-96.766;2022-08-01T12:40:20;0.53;;;0.50;;
44272;SDS011;29964;17.182;-96.766;2022-08-01T12:42:48;0.70;;;0.60;;
44272;SDS011;29964;17.182;-96.766;2022-08-01T12:45:16;0.67;;;0.40;;
44272;SDS011;29964;17.182;-96.766;2022-08-01T12:47:43;2.17;;;0.70;;
44272;SDS011;29964;17.182;-96.766;2022-08-01T12:50:12;0.97;;;0.80;;
44272;SDS011;29964;17.182;-96.766;2022-08-01T12:52:40;1.10;;;0.70;;
44272;SDS011;29964;17.182;-96.766;2022-08-01T12:55:19;1.17;;;0.67;;
44272;SDS011;29964;17.182;-96.766;2022-08-01T12:57:48;1.97;;;0.80;;
44272;SDS011;29964;17.182;-96.766;2022-08-01T13:00:19;1.37;;;0.80;;
44272;SDS011;29964;17.182;-96.766;2022-08-01T13:02:48;3.03;;;1.40;;
44272;SDS011;29964;17.182;-96.766;2022-08-01T13:05:15;3.33;;;1.20;;
44272;SDS011;29964;17.182;-96.766;2022-08-01T13:07:44;0.90;;;0.70;;
44272;SDS011;29964;17.182;-96.766;2022-08-01T13:10:12;1.90;;;1.30;;
44272;SDS011;29964;17.182;-96.766;2022-08-01T13:12:39;2.57;;;1.47;;
44272;SDS011;29964;17.182;-96.766;2022-08-01T13:15:16;2.37;;;1.10;;
44272;SDS011;29964;17.182;-96.766;2022-08-01T13:17:43;1.87;;;1.30;;
44272;SDS011;29964;17.182;-96.766;2022-08-01T13:20:10;1.37;;;1.00;;
44272;SDS011;29964;17.182;-96.766;2022-08-01T13:22:47;1.03;;;0.80;;
44272;SDS011;29964;17.182;-96.766;2022-08-01T13:25:14;0.60;;;0.50;;
44272;SDS011;29964;17.182;-96.766;2022-08-01T13:27:42;2.63;;;0.90;;
44272;SDS011;29964;17.182;-96.766;2022-08-01T13:30:15;1.03;;;0.60;;
44272;SDS011;29964;17.182;-96.766;2022-08-01T13:32:42;1.90;;;0.80;;
44272;SDS011;29964;17.182;-96.766;2022-08-01T13:35:10;1.03;;;0.63;;
44272;SDS011;29964;17.182;-96.766;2022-08-01T13:37:38;1.07;;;0.70;;
44272;SDS011;29964;17.182;-96.766;2022-08-01T13:40:08;0.37;;;0.33;;
44272;SDS011;29964;17.182;-96.766;2022-08-01T13:42:35;1.00;;;0.70;;
44272;SDS011;29964;17.182;-96.766;2022-08-01T13:45:03;2.03;;;1.13;;
44272;SDS011;29964;17.182;-96.766;2022-08-01T13:47:32;1.57;;;1.10;;
44272;SDS011;29964;17.182;-96.766;2022-08-01T13:49:59;1.50;;;0.83;;
44272;SDS011;29964;17.182;-96.766;2022-08-01T13:52:27;2.03;;;0.77;;
44272;SDS011;29964;17.182;-96.766;2022-08-01T13:54:54;2.13;;;1.10;;
44272;SDS011;29964;17.182;-96.766;2022-08-01T13:57:21;2.47;;;0.93;;
44272;SDS011;29964;17.182;-96.766;2022-08-01T13:59:48;2.40;;;1.20;;
44272;SDS011;29964;17.182;-96.766;2022-08-01T14:02:14;1.60;;;1.03;;
44272;SDS011;29964;17.182;-96.766;2022-08-01T14:04:41;4.47;;;1.10;;
44272;SDS011;29964;17.182;-96.766;2022-08-01T14:07:08;0.87;;;0.63;;
44272;SDS011;29964;17.182;-96.766;2022-08-01T14:09:34;1.00;;;0.80;;
44272;SDS011;29964;17.182;-96.766;2022-08-01T14:12:01;1.70;;;1.10;;
44272;SDS011;29964;17.182;-96.766;2022-08-01T14:14:28;2.40;;;1.40;;
44272;SDS011;29964;17.182;-96.766;2022-08-01T14:16:55;4.10;;;1.17;;
44272;SDS011;29964;17.182;-96.766;2022-08-01T14:19:22;3.83;;;1.60;;
44272;SDS011;29964;17.182;-96.766;2022-08-01T14:21:49;2.17;;;1.17;;
44272;SDS011;29964;17.182;-96.766;2022-08-01T14:24:17;1.50;;;1.10;;
44272;SDS011;29964;17.182;-96.766;2022-08-01T14:26:44;1.30;;;1.00;;
44272;SDS011;29964;17.182;-96.766;2022-08-01T14:29:11;1.80;;;1.27;;
44272;SDS011;29964;17.182;-96.766;2022-08-01T14:31:37;1.87;;;1.10;;
44272;SDS011;29964;17.182;-96.766;2022-08-01T14:34:04;1.37;;;0.97;;
44272;SDS011;29964;17.182;-96.766;2022-08-01T14:36:31;1.47;;;1.03;;
44272;SDS011;29964;17.182;-96.766;2022-08-01T14:38:58;1.53;;;0.87;;
44272;SDS011;29964;17.182;-96.766;2022-08-01T14:41:25;1.00;;;0.70;;
44272;SDS011;29964;17.182;-96.766;2022-08-01T14:43:51;1.33;;;0.90;;
44272;SDS011;29964;17.182;-96.766;2022-08-01T14:46:18;2.33;;;1.00;;
44272;SDS011;29964;17.182;-96.766;2022-08-01T14:48:45;5.13;;;0.80;;
44272;SDS011;29964;17.182;-96.766;2022-08-01T14:51:12;1.10;;;0.60;;
44272;SDS011;29964;17.182;-96.766;2022-08-01T14:53:39;1.63;;;1.00;;